Terminal Aerodrome Forecast
Issued by NWS

Home | Current Version | Previous Version | Text Only | Print | Product List | Glossary On
Versions: 1 2 3 4 5 6 7 8 9 10 11 12 13 14
000
FTUS44 KBMX 212300 RRA
TAFMGM
TAF
KMGM 212346Z 2200/2224 00000KT P6SM SKC
     FM221500 09008KT P6SM BKN050
     FM221800 11009KT P6SM BKN025
     FM222100 10007KT P6SM OVC050=

USA.gov is the U.S. government's official web portal to all federal, state and local government web resources and services.